sensor_id;sensor_type;location;lat;lon;timestamp;P1;durP1;ratioP1;P2;durP2;ratioP2
70757;SDS011;59316;52.964;7.102;2022-10-23T00:03:21;154.05;;;20.63;;
70757;SDS011;59316;52.964;7.102;2022-10-23T00:08:24;157.90;;;19.73;;
70757;SDS011;59316;52.964;7.102;2022-10-23T00:13:26;407.40;;;27.10;;
70757;SDS011;59316;52.964;7.102;2022-10-23T00:18:28;120.40;;;22.30;;
70757;SDS011;59316;52.964;7.102;2022-10-23T00:23:30;104.65;;;21.40;;
70757;SDS011;59316;52.964;7.102;2022-10-23T00:28:33;126.37;;;19.93;;
70757;SDS011;59316;52.964;7.102;2022-10-23T00:33:35;110.97;;;21.30;;
70757;SDS011;59316;52.964;7.102;2022-10-23T00:38:38;130.20;;;21.67;;
70757;SDS011;59316;52.964;7.102;2022-10-23T00:43:54;61.08;;;17.15;;
70757;SDS011;59316;52.964;7.102;2022-10-23T00:48:58;97.82;;;18.63;;
70757;SDS011;59316;52.964;7.102;2022-10-23T00:59:24;70.70;;;17.80;;
70757;SDS011;59316;52.964;7.102;2022-10-23T01:09:32;57.38;;;17.00;;
70757;SDS011;59316;52.964;7.102;2022-10-23T01:20:11;146.93;;;19.00;;
70757;SDS011;59316;52.964;7.102;2022-10-23T01:25:22;61.10;;;17.83;;
70757;SDS011;59316;52.964;7.102;2022-10-23T01:30:43;60.00;;;16.95;;
70757;SDS011;59316;52.964;7.102;2022-10-23T01:35:55;74.72;;;17.65;;
70757;SDS011;59316;52.964;7.102;2022-10-23T01:41:06;75.13;;;16.95;;
70757;SDS011;59316;52.964;7.102;2022-10-23T01:46:18;99.90;;;17.35;;
70757;SDS011;59316;52.964;7.102;2022-10-23T01:51:24;58.53;;;15.80;;
70757;SDS011;59316;52.964;7.102;2022-10-23T01:56:36;49.08;;;15.45;;
70757;SDS011;59316;52.964;7.102;2022-10-23T02:01:44;46.42;;;15.77;;
70757;SDS011;59316;52.964;7.102;2022-10-23T02:06:49;45.00;;;16.63;;
70757;SDS011;59316;52.964;7.102;2022-10-23T02:12:15;58.83;;;16.57;;
70757;SDS011;59316;52.964;7.102;2022-10-23T02:17:27;50.28;;;16.73;;
70757;SDS011;59316;52.964;7.102;2022-10-23T02:22:52;49.92;;;16.40;;
70757;SDS011;59316;52.964;7.102;2022-10-23T02:28:03;60.42;;;16.90;;
70757;SDS011;59316;52.964;7.102;2022-10-23T02:33:16;65.18;;;17.65;;
70757;SDS011;59316;52.964;7.102;2022-10-23T02:38:30;62.58;;;19.25;;
70757;SDS011;59316;52.964;7.102;2022-10-23T02:43:36;80.88;;;19.67;;
70757;SDS011;59316;52.964;7.102;2022-10-23T02:48:52;72.32;;;19.73;;
70757;SDS011;59316;52.964;7.102;2022-10-23T02:54:05;62.67;;;18.48;;
70757;SDS011;59316;52.964;7.102;2022-10-23T02:59:18;60.05;;;17.88;;
70757;SDS011;59316;52.964;7.102;2022-10-23T03:04:36;58.47;;;17.58;;
70757;SDS011;59316;52.964;7.102;2022-10-23T03:09:40;72.70;;;19.60;;
70757;SDS011;59316;52.964;7.102;2022-10-23T03:14:42;85.28;;;19.77;;
70757;SDS011;59316;52.964;7.102;2022-10-23T03:19:44;82.10;;;20.23;;
70757;SDS011;59316;52.964;7.102;2022-10-23T03:24:48;79.93;;;20.67;;
70757;SDS011;59316;52.964;7.102;2022-10-23T03:29:50;76.00;;;20.95;;
70757;SDS011;59316;52.964;7.102;2022-10-23T03:34:53;75.95;;;21.60;;
70757;SDS011;59316;52.964;7.102;2022-10-23T03:39:56;77.82;;;20.98;;
70757;SDS011;59316;52.964;7.102;2022-10-23T03:44:58;77.97;;;20.90;;
70757;SDS011;59316;52.964;7.102;2022-10-23T03:50:00;78.90;;;20.20;;
70757;SDS011;59316;52.964;7.102;2022-10-23T03:55:05;73.65;;;19.88;;
70757;SDS011;59316;52.964;7.102;2022-10-23T04:00:10;90.28;;;21.13;;
70757;SDS011;59316;52.964;7.102;2022-10-23T04:05:20;93.15;;;21.92;;
70757;SDS011;59316;52.964;7.102;2022-10-23T04:10:28;104.00;;;23.02;;
70757;SDS011;59316;52.964;7.102;2022-10-23T04:15:30;78.28;;;21.70;;
70757;SDS011;59316;52.964;7.102;2022-10-23T04:20:32;62.05;;;19.55;;
70757;SDS011;59316;52.964;7.102;2022-10-23T04:25:36;64.30;;;19.35;;
70757;SDS011;59316;52.964;7.102;2022-10-23T04:30:38;71.20;;;21.50;;
70757;SDS011;59316;52.964;7.102;2022-10-23T04:35:43;79.53;;;21.58;;
70757;SDS011;59316;52.964;7.102;2022-10-23T04:40:46;69.47;;;21.08;;
70757;SDS011;59316;52.964;7.102;2022-10-23T04:45:53;86.55;;;22.05;;
70757;SDS011;59316;52.964;7.102;2022-10-23T04:50:59;86.50;;;21.95;;
70757;SDS011;59316;52.964;7.102;2022-10-23T04:56:22;97.47;;;23.02;;
70757;SDS011;59316;52.964;7.102;2022-10-23T05:01:37;88.20;;;20.63;;
70757;SDS011;59316;52.964;7.102;2022-10-23T05:06:41;77.57;;;21.77;;
70757;SDS011;59316;52.964;7.102;2022-10-23T05:11:54;91.88;;;21.42;;
70757;SDS011;59316;52.964;7.102;2022-10-23T05:17:03;110.93;;;22.95;;
70757;SDS011;59316;52.964;7.102;2022-10-23T05:22:13;82.53;;;21.20;;
70757;SDS011;59316;52.964;7.102;2022-10-23T05:27:25;57.80;;;19.98;;
70757;SDS011;59316;52.964;7.102;2022-10-23T05:32:30;72.85;;;20.33;;
70757;SDS011;59316;52.964;7.102;2022-10-23T05:37:36;69.55;;;18.90;;
70757;SDS011;59316;52.964;7.102;2022-10-23T05:42:45;78.53;;;19.85;;
70757;SDS011;59316;52.964;7.102;2022-10-23T05:47:54;79.00;;;20.08;;
70757;SDS011;59316;52.964;7.102;2022-10-23T05:53:24;60.38;;;17.73;;
70757;SDS011;59316;52.964;7.102;2022-10-23T05:59:05;67.68;;;18.60;;
70757;SDS011;59316;52.964;7.102;2022-10-23T06:04:23;77.88;;;18.85;;
70757;SDS011;59316;52.964;7.102;2022-10-23T06:09:48;109.85;;;22.17;;
70757;SDS011;59316;52.964;7.102;2022-10-23T06:14:51;87.75;;;20.02;;
70757;SDS011;59316;52.964;7.102;2022-10-23T06:19:58;63.70;;;18.55;;
70757;SDS011;59316;52.964;7.102;2022-10-23T06:25:01;67.07;;;18.33;;
70757;SDS011;59316;52.964;7.102;2022-10-23T06:30:04;54.40;;;17.05;;
70757;SDS011;59316;52.964;7.102;2022-10-23T06:35:06;69.47;;;17.63;;
70757;SDS011;59316;52.964;7.102;2022-10-23T06:40:09;66.95;;;16.98;;
70757;SDS011;59316;52.964;7.102;2022-10-23T06:45:32;72.75;;;17.38;;
70757;SDS011;59316;52.964;7.102;2022-10-23T06:50:46;74.80;;;18.77;;
70757;SDS011;59316;52.964;7.102;2022-10-23T06:55:58;71.00;;;18.08;;
70757;SDS011;59316;52.964;7.102;2022-10-23T07:01:03;64.00;;;18.67;;
70757;SDS011;59316;52.964;7.102;2022-10-23T07:06:09;69.25;;;17.75;;
70757;SDS011;59316;52.964;7.102;2022-10-23T07:11:12;70.55;;;17.77;;
70757;SDS011;59316;52.964;7.102;2022-10-23T07:16:18;57.72;;;15.85;;
70757;SDS011;59316;52.964;7.102;2022-10-23T07:21:24;63.97;;;16.58;;
70757;SDS011;59316;52.964;7.102;2022-10-23T07:26:30;58.00;;;15.65;;
70757;SDS011;59316;52.964;7.102;2022-10-23T07:31:32;52.88;;;17.60;;
70757;SDS011;59316;52.964;7.102;2022-10-23T07:37:01;80.78;;;19.02;;
70757;SDS011;59316;52.964;7.102;2022-10-23T07:42:04;64.70;;;18.77;;
70757;SDS011;59316;52.964;7.102;2022-10-23T07:47:08;71.72;;;18.83;;
70757;SDS011;59316;52.964;7.102;2022-10-23T07:52:13;59.85;;;17.30;;
70757;SDS011;59316;52.964;7.102;2022-10-23T07:57:36;71.78;;;19.23;;
70757;SDS011;59316;52.964;7.102;2022-10-23T08:03:14;62.75;;;18.85;;
70757;SDS011;59316;52.964;7.102;2022-10-23T08:08:35;72.75;;;19.88;;
70757;SDS011;59316;52.964;7.102;2022-10-23T08:13:58;57.08;;;18.52;;
70757;SDS011;59316;52.964;7.102;2022-10-23T08:19:21;80.55;;;19.55;;
70757;SDS011;59316;52.964;7.102;2022-10-23T08:24:45;73.45;;;19.23;;
70757;SDS011;59316;52.964;7.102;2022-10-23T08:30:06;59.33;;;17.98;;
70757;SDS011;59316;52.964;7.102;2022-10-23T08:35:27;63.40;;;19.48;;
70757;SDS011;59316;52.964;7.102;2022-10-23T08:40:30;67.20;;;18.93;;
70757;SDS011;59316;52.964;7.102;2022-10-23T08:46:12;65.93;;;19.83;;
70757;SDS011;59316;52.964;7.102;2022-10-23T08:51:41;55.40;;;18.63;;
70757;SDS011;59316;52.964;7.102;2022-10-23T08:56:48;57.83;;;18.27;;
70757;SDS011;59316;52.964;7.102;2022-10-23T09:02:02;55.47;;;18.00;;
70757;SDS011;59316;52.964;7.102;2022-10-23T09:07:20;41.58;;;16.73;;
70757;SDS011;59316;52.964;7.102;2022-10-23T09:12:32;56.55;;;17.83;;
70757;SDS011;59316;52.964;7.102;2022-10-23T09:17:35;57.07;;;17.63;;
70757;SDS011;59316;52.964;7.102;2022-10-23T09:22:44;52.90;;;16.15;;
70757;SDS011;59316;52.964;7.102;2022-10-23T09:27:49;52.30;;;15.77;;
70757;SDS011;59316;52.964;7.102;2022-10-23T09:32:56;41.20;;;15.07;;
70757;SDS011;59316;52.964;7.102;2022-10-23T09:37:59;31.90;;;13.25;;
70757;SDS011;59316;52.964;7.102;2022-10-23T09:43:09;28.50;;;12.63;;
70757;SDS011;59316;52.964;7.102;2022-10-23T09:48:17;31.13;;;12.02;;
70757;SDS011;59316;52.964;7.102;2022-10-23T09:53:25;26.70;;;10.40;;
70757;SDS011;59316;52.964;7.102;2022-10-23T09:58:38;22.92;;;11.07;;
70757;SDS011;59316;52.964;7.102;2022-10-23T10:03:48;22.63;;;10.70;;
70757;SDS011;59316;52.964;7.102;2022-10-23T10:08:56;19.27;;;10.18;;
70757;SDS011;59316;52.964;7.102;2022-10-23T10:14:05;17.48;;;8.23;;
70757;SDS011;59316;52.964;7.102;2022-10-23T10:30:43;9.90;;;6.10;;
70757;SDS011;59316;52.964;7.102;2022-10-23T10:46:43;10.63;;;4.75;;
70757;SDS011;59316;52.964;7.102;2022-10-23T10:57:12;8.15;;;4.68;;
70757;SDS011;59316;52.964;7.102;2022-10-23T11:02:29;7.68;;;3.95;;
70757;SDS011;59316;52.964;7.102;2022-10-23T11:07:52;8.38;;;4.40;;
70757;SDS011;59316;52.964;7.102;2022-10-23T11:12:57;8.40;;;4.57;;
70757;SDS011;59316;52.964;7.102;2022-10-23T11:18:02;9.50;;;3.97;;
70757;SDS011;59316;52.964;7.102;2022-10-23T11:23:25;6.35;;;3.75;;
70757;SDS011;59316;52.964;7.102;2022-10-23T11:28:39;10.20;;;4.25;;
70757;SDS011;59316;52.964;7.102;2022-10-23T11:44:45;10.98;;;3.83;;
70757;SDS011;59316;52.964;7.102;2022-10-23T11:55:15;7.65;;;4.20;;
70757;SDS011;59316;52.964;7.102;2022-10-23T12:00:20;10.60;;;4.22;;
70757;SDS011;59316;52.964;7.102;2022-10-23T12:05:31;8.85;;;4.63;;
70757;SDS011;59316;52.964;7.102;2022-10-23T12:10:42;7.43;;;3.70;;
70757;SDS011;59316;52.964;7.102;2022-10-23T12:15:51;11.23;;;3.70;;
70757;SDS011;59316;52.964;7.102;2022-10-23T12:21:00;8.43;;;3.90;;
70757;SDS011;59316;52.964;7.102;2022-10-23T12:26:16;5.82;;;3.17;;
70757;SDS011;59316;52.964;7.102;2022-10-23T12:31:43;7.55;;;3.63;;
70757;SDS011;59316;52.964;7.102;2022-10-23T12:36:52;9.52;;;3.30;;
70757;SDS011;59316;52.964;7.102;2022-10-23T12:42:10;13.00;;;3.08;;
70757;SDS011;59316;52.964;7.102;2022-10-23T12:47:18;7.07;;;3.10;;
70757;SDS011;59316;52.964;7.102;2022-10-23T12:52:21;6.57;;;3.17;;
70757;SDS011;59316;52.964;7.102;2022-10-23T13:02:29;9.40;;;3.08;;
70757;SDS011;59316;52.964;7.102;2022-10-23T13:07:33;6.18;;;3.33;;
70757;SDS011;59316;52.964;7.102;2022-10-23T13:12:39;12.95;;;3.13;;
70757;SDS011;59316;52.964;7.102;2022-10-23T13:22:57;6.57;;;2.83;;
70757;SDS011;59316;52.964;7.102;2022-10-23T13:28:23;8.43;;;2.80;;
70757;SDS011;59316;52.964;7.102;2022-10-23T13:33:31;7.90;;;2.92;;
70757;SDS011;59316;52.964;7.102;2022-10-23T13:38:35;6.50;;;3.00;;
70757;SDS011;59316;52.964;7.102;2022-10-23T13:43:41;10.10;;;2.85;;
70757;SDS011;59316;52.964;7.102;2022-10-23T13:48:44;7.30;;;2.60;;
70757;SDS011;59316;52.964;7.102;2022-10-23T13:53:47;8.27;;;3.08;;
70757;SDS011;59316;52.964;7.102;2022-10-23T13:58:50;6.88;;;2.90;;
70757;SDS011;59316;52.964;7.102;2022-10-23T14:03:55;7.50;;;3.05;;
70757;SDS011;59316;52.964;7.102;2022-10-23T14:08:59;12.70;;;3.10;;
70757;SDS011;59316;52.964;7.102;2022-10-23T14:14:01;7.53;;;3.00;;
70757;SDS011;59316;52.964;7.102;2022-10-23T14:19:04;6.43;;;3.20;;
70757;SDS011;59316;52.964;7.102;2022-10-23T14:24:07;5.72;;;3.05;;
70757;SDS011;59316;52.964;7.102;2022-10-23T14:29:09;8.15;;;3.10;;
70757;SDS011;59316;52.964;7.102;2022-10-23T14:34:22;6.37;;;3.57;;
70757;SDS011;59316;52.964;7.102;2022-10-23T14:39:24;8.60;;;3.30;;
70757;SDS011;59316;52.964;7.102;2022-10-23T14:44:27;5.33;;;3.20;;
70757;SDS011;59316;52.964;7.102;2022-10-23T14:49:29;10.93;;;3.10;;
70757;SDS011;59316;52.964;7.102;2022-10-23T14:54:32;9.77;;;3.22;;
70757;SDS011;59316;52.964;7.102;2022-10-23T14:59:34;8.93;;;3.35;;
70757;SDS011;59316;52.964;7.102;2022-10-23T15:04:36;6.50;;;3.50;;
70757;SDS011;59316;52.964;7.102;2022-10-23T15:14:41;12.15;;;3.85;;
70757;SDS011;59316;52.964;7.102;2022-10-23T15:19:44;8.53;;;3.37;;
70757;SDS011;59316;52.964;7.102;2022-10-23T15:24:46;5.77;;;3.33;;
70757;SDS011;59316;52.964;7.102;2022-10-23T15:29:48;5.37;;;3.47;;
70757;SDS011;59316;52.964;7.102;2022-10-23T15:34:51;8.73;;;3.40;;
70757;SDS011;59316;52.964;7.102;2022-10-23T15:39:55;7.47;;;3.40;;
70757;SDS011;59316;52.964;7.102;2022-10-23T15:45:03;8.52;;;3.30;;
70757;SDS011;59316;52.964;7.102;2022-10-23T15:50:05;8.77;;;3.03;;
70757;SDS011;59316;52.964;7.102;2022-10-23T15:55:08;6.30;;;3.33;;
70757;SDS011;59316;52.964;7.102;2022-10-23T16:00:11;6.47;;;3.40;;
70757;SDS011;59316;52.964;7.102;2022-10-23T16:05:19;10.68;;;3.10;;
70757;SDS011;59316;52.964;7.102;2022-10-23T16:10:21;6.33;;;3.17;;
70757;SDS011;59316;52.964;7.102;2022-10-23T16:15:23;6.43;;;2.90;;
70757;SDS011;59316;52.964;7.102;2022-10-23T16:20:26;9.37;;;3.50;;
70757;SDS011;59316;52.964;7.102;2022-10-23T16:25:28;13.60;;;3.90;;
70757;SDS011;59316;52.964;7.102;2022-10-23T16:30:30;7.00;;;3.17;;
70757;SDS011;59316;52.964;7.102;2022-10-23T16:35:33;5.43;;;3.00;;
70757;SDS011;59316;52.964;7.102;2022-10-23T16:40:49;4.63;;;3.00;;
70757;SDS011;59316;52.964;7.102;2022-10-23T16:46:18;6.63;;;3.10;;
70757;SDS011;59316;52.964;7.102;2022-10-23T16:51:23;6.80;;;2.92;;
70757;SDS011;59316;52.964;7.102;2022-10-23T16:56:27;9.57;;;3.20;;
70757;SDS011;59316;52.964;7.102;2022-10-23T17:01:31;6.30;;;2.95;;
70757;SDS011;59316;52.964;7.102;2022-10-23T17:06:34;5.57;;;3.13;;
70757;SDS011;59316;52.964;7.102;2022-10-23T17:11:37;7.47;;;2.95;;
70757;SDS011;59316;52.964;7.102;2022-10-23T17:16:42;11.77;;;3.60;;
70757;SDS011;59316;52.964;7.102;2022-10-23T17:21:49;17.23;;;4.30;;
70757;SDS011;59316;52.964;7.102;2022-10-23T17:26:53;5.40;;;3.20;;
70757;SDS011;59316;52.964;7.102;2022-10-23T17:31:55;7.82;;;3.42;;
70757;SDS011;59316;52.964;7.102;2022-10-23T17:36:57;11.00;;;2.70;;
70757;SDS011;59316;52.964;7.102;2022-10-23T17:42:00;4.60;;;2.70;;
70757;SDS011;59316;52.964;7.102;2022-10-23T17:47:02;4.73;;;2.30;;
70757;SDS011;59316;52.964;7.102;2022-10-23T17:52:05;5.77;;;2.80;;
70757;SDS011;59316;52.964;7.102;2022-10-23T17:57:07;3.90;;;2.37;;
70757;SDS011;59316;52.964;7.102;2022-10-23T18:02:10;5.63;;;2.67;;
70757;SDS011;59316;52.964;7.102;2022-10-23T18:07:14;6.57;;;2.47;;
70757;SDS011;59316;52.964;7.102;2022-10-23T18:12:16;6.40;;;2.38;;
70757;SDS011;59316;52.964;7.102;2022-10-23T18:17:19;6.00;;;2.35;;
70757;SDS011;59316;52.964;7.102;2022-10-23T18:22:21;4.97;;;2.30;;
70757;SDS011;59316;52.964;7.102;2022-10-23T18:27:24;10.67;;;2.63;;
70757;SDS011;59316;52.964;7.102;2022-10-23T18:32:26;5.22;;;2.42;;
70757;SDS011;59316;52.964;7.102;2022-10-23T18:37:28;7.27;;;2.70;;
70757;SDS011;59316;52.964;7.102;2022-10-23T18:42:36;6.93;;;2.58;;
70757;SDS011;59316;52.964;7.102;2022-10-23T18:47:38;3.27;;;2.50;;
70757;SDS011;59316;52.964;7.102;2022-10-23T18:52:41;13.23;;;4.00;;
70757;SDS011;59316;52.964;7.102;2022-10-23T18:57:43;6.37;;;2.23;;
70757;SDS011;59316;52.964;7.102;2022-10-23T19:02:46;8.70;;;2.85;;
70757;SDS011;59316;52.964;7.102;2022-10-23T19:07:53;7.72;;;2.60;;
70757;SDS011;59316;52.964;7.102;2022-10-23T19:12:56;9.10;;;2.63;;
70757;SDS011;59316;52.964;7.102;2022-10-23T19:17:58;6.80;;;2.78;;
70757;SDS011;59316;52.964;7.102;2022-10-23T19:23:01;8.70;;;3.17;;
70757;SDS011;59316;52.964;7.102;2022-10-23T19:28:06;6.57;;;2.47;;
70757;SDS011;59316;52.964;7.102;2022-10-23T19:33:08;8.73;;;2.80;;
70757;SDS011;59316;52.964;7.102;2022-10-23T19:38:10;10.00;;;2.83;;
70757;SDS011;59316;52.964;7.102;2022-10-23T19:43:13;7.87;;;2.90;;
70757;SDS011;59316;52.964;7.102;2022-10-23T19:48:15;9.23;;;2.90;;
70757;SDS011;59316;52.964;7.102;2022-10-23T19:53:17;12.90;;;3.27;;
70757;SDS011;59316;52.964;7.102;2022-10-23T19:58:20;6.93;;;2.53;;
70757;SDS011;59316;52.964;7.102;2022-10-23T20:03:22;8.20;;;2.67;;
70757;SDS011;59316;52.964;7.102;2022-10-23T20:08:25;13.10;;;3.00;;
70757;SDS011;59316;52.964;7.102;2022-10-23T20:13:32;3.92;;;2.30;;
70757;SDS011;59316;52.964;7.102;2022-10-23T20:18:34;5.50;;;2.40;;
70757;SDS011;59316;52.964;7.102;2022-10-23T20:23:36;6.40;;;2.40;;
70757;SDS011;59316;52.964;7.102;2022-10-23T20:28:39;6.50;;;2.50;;
70757;SDS011;59316;52.964;7.102;2022-10-23T20:33:41;4.73;;;2.60;;
70757;SDS011;59316;52.964;7.102;2022-10-23T20:38:44;12.45;;;2.53;;
70757;SDS011;59316;52.964;7.102;2022-10-23T20:43:46;7.10;;;2.60;;
70757;SDS011;59316;52.964;7.102;2022-10-23T20:48:49;7.80;;;2.15;;
70757;SDS011;59316;52.964;7.102;2022-10-23T20:58:55;7.18;;;2.17;;
70757;SDS011;59316;52.964;7.102;2022-10-23T21:03:59;7.90;;;3.63;;
70757;SDS011;59316;52.964;7.102;2022-10-23T21:09:03;5.82;;;3.10;;
70757;SDS011;59316;52.964;7.102;2022-10-23T21:14:06;6.05;;;3.00;;
70757;SDS011;59316;52.964;7.102;2022-10-23T21:19:09;5.83;;;3.07;;
70757;SDS011;59316;52.964;7.102;2022-10-23T21:24:16;7.30;;;3.15;;
70757;SDS011;59316;52.964;7.102;2022-10-23T21:29:19;5.10;;;2.80;;
70757;SDS011;59316;52.964;7.102;2022-10-23T21:34:22;11.55;;;4.35;;
70757;SDS011;59316;52.964;7.102;2022-10-23T21:39:25;10.40;;;2.70;;
70757;SDS011;59316;52.964;7.102;2022-10-23T21:44:27;7.97;;;3.23;;
70757;SDS011;59316;52.964;7.102;2022-10-23T21:49:30;7.57;;;3.30;;
70757;SDS011;59316;52.964;7.102;2022-10-23T21:54:32;6.10;;;3.55;;
70757;SDS011;59316;52.964;7.102;2022-10-23T21:59:35;9.17;;;2.83;;
70757;SDS011;59316;52.964;7.102;2022-10-23T22:04:37;8.20;;;3.40;;
70757;SDS011;59316;52.964;7.102;2022-10-23T22:09:40;6.00;;;3.30;;
70757;SDS011;59316;52.964;7.102;2022-10-23T22:14:43;4.82;;;2.88;;
70757;SDS011;59316;52.964;7.102;2022-10-23T22:19:45;7.50;;;3.60;;
70757;SDS011;59316;52.964;7.102;2022-10-23T22:24:47;8.33;;;3.30;;
70757;SDS011;59316;52.964;7.102;2022-10-23T22:29:50;12.47;;;2.60;;
70757;SDS011;59316;52.964;7.102;2022-10-23T22:34:52;7.60;;;2.80;;
70757;SDS011;59316;52.964;7.102;2022-10-23T22:39:54;7.63;;;3.07;;
70757;SDS011;59316;52.964;7.102;2022-10-23T22:44:57;7.73;;;2.40;;
70757;SDS011;59316;52.964;7.102;2022-10-23T22:49:59;5.17;;;2.40;;
70757;SDS011;59316;52.964;7.102;2022-10-23T22:55:01;4.73;;;2.30;;
70757;SDS011;59316;52.964;7.102;2022-10-23T23:00:04;6.07;;;2.17;;
70757;SDS011;59316;52.964;7.102;2022-10-23T23:05:09;7.00;;;2.33;;
70757;SDS011;59316;52.964;7.102;2022-10-23T23:10:12;5.40;;;2.78;;
70757;SDS011;59316;52.964;7.102;2022-10-23T23:15:14;6.93;;;2.50;;
70757;SDS011;59316;52.964;7.102;2022-10-23T23:20:17;6.20;;;2.27;;
70757;SDS011;59316;52.964;7.102;2022-10-23T23:25:19;4.07;;;2.40;;
70757;SDS011;59316;52.964;7.102;2022-10-23T23:30:21;11.10;;;3.73;;
70757;SDS011;59316;52.964;7.102;2022-10-23T23:35:24;8.45;;;2.60;;
70757;SDS011;59316;52.964;7.102;2022-10-23T23:40:27;5.40;;;2.20;;
70757;SDS011;59316;52.964;7.102;2022-10-23T23:45:29;5.53;;;2.00;;
70757;SDS011;59316;52.964;7.102;2022-10-23T23:50:32;4.95;;;2.60;;
70757;SDS011;59316;52.964;7.102;2022-10-23T23:55:34;4.07;;;1.83;;
